sensor_id;sensor_type;location;lat;lon;timestamp;P1;durP1;ratioP1;P2;durP2;ratioP2
2147;SDS011;1080;48.724;9.104;2023-01-29T00:01:18;8.67;;;6.03;;
2147;SDS011;1080;48.724;9.104;2023-01-29T00:03:45;9.63;;;4.60;;
2147;SDS011;1080;48.724;9.104;2023-01-29T00:06:13;7.80;;;4.67;;
2147;SDS011;1080;48.724;9.104;2023-01-29T00:08:40;8.90;;;6.40;;
2147;SDS011;1080;48.724;9.104;2023-01-29T00:11:07;8.20;;;5.70;;
2147;SDS011;1080;48.724;9.104;2023-01-29T00:13:34;8.83;;;5.90;;
2147;SDS011;1080;48.724;9.104;2023-01-29T00:16:02;10.33;;;6.20;;
2147;SDS011;1080;48.724;9.104;2023-01-29T00:18:29;10.10;;;5.97;;
2147;SDS011;1080;48.724;9.104;2023-01-29T00:20:56;8.80;;;5.67;;
2147;SDS011;1080;48.724;9.104;2023-01-29T00:23:25;9.73;;;6.47;;
2147;SDS011;1080;48.724;9.104;2023-01-29T00:25:52;10.10;;;5.80;;
2147;SDS011;1080;48.724;9.104;2023-01-29T00:28:19;7.13;;;4.87;;
2147;SDS011;1080;48.724;9.104;2023-01-29T00:30:46;9.33;;;6.70;;
2147;SDS011;1080;48.724;9.104;2023-01-29T00:33:13;11.00;;;6.50;;
2147;SDS011;1080;48.724;9.104;2023-01-29T00:35:40;9.43;;;6.03;;
2147;SDS011;1080;48.724;9.104;2023-01-29T00:38:08;7.97;;;5.00;;
2147;SDS011;1080;48.724;9.104;2023-01-29T00:40:39;10.33;;;5.40;;
2147;SDS011;1080;48.724;9.104;2023-01-29T00:43:25;10.67;;;5.33;;
2147;SDS011;1080;48.724;9.104;2023-01-29T00:46:24;9.20;;;5.40;;
2147;SDS011;1080;48.724;9.104;2023-01-29T00:48:51;7.83;;;5.80;;
2147;SDS011;1080;48.724;9.104;2023-01-29T00:51:18;5.97;;;4.97;;
2147;SDS011;1080;48.724;9.104;2023-01-29T00:53:45;7.93;;;5.20;;
2147;SDS011;1080;48.724;9.104;2023-01-29T00:56:13;14.60;;;6.60;;
2147;SDS011;1080;48.724;9.104;2023-01-29T00:58:40;7.83;;;5.37;;
2147;SDS011;1080;48.724;9.104;2023-01-29T01:01:07;7.57;;;4.87;;
2147;SDS011;1080;48.724;9.104;2023-01-29T01:03:34;10.30;;;5.60;;
2147;SDS011;1080;48.724;9.104;2023-01-29T01:06:06;9.90;;;6.80;;
2147;SDS011;1080;48.724;9.104;2023-01-29T01:08:35;7.73;;;5.67;;
2147;SDS011;1080;48.724;9.104;2023-01-29T01:11:21;9.77;;;5.70;;
2147;SDS011;1080;48.724;9.104;2023-01-29T01:13:48;8.37;;;5.60;;
2147;SDS011;1080;48.724;9.104;2023-01-29T01:16:16;5.60;;;4.00;;
2147;SDS011;1080;48.724;9.104;2023-01-29T01:18:44;6.63;;;5.20;;
2147;SDS011;1080;48.724;9.104;2023-01-29T01:21:11;6.60;;;4.80;;
2147;SDS011;1080;48.724;9.104;2023-01-29T01:23:39;6.93;;;4.17;;
2147;SDS011;1080;48.724;9.104;2023-01-29T01:26:09;8.07;;;5.30;;
2147;SDS011;1080;48.724;9.104;2023-01-29T01:28:37;6.43;;;4.37;;
2147;SDS011;1080;48.724;9.104;2023-01-29T01:31:08;6.83;;;4.77;;
2147;SDS011;1080;48.724;9.104;2023-01-29T01:33:36;5.27;;;3.93;;
2147;SDS011;1080;48.724;9.104;2023-01-29T01:36:03;7.63;;;4.73;;
2147;SDS011;1080;48.724;9.104;2023-01-29T01:38:34;7.47;;;3.90;;
2147;SDS011;1080;48.724;9.104;2023-01-29T01:41:08;6.97;;;5.40;;
2147;SDS011;1080;48.724;9.104;2023-01-29T01:43:48;6.50;;;5.30;;
2147;SDS011;1080;48.724;9.104;2023-01-29T01:46:17;8.90;;;4.10;;
2147;SDS011;1080;48.724;9.104;2023-01-29T01:48:44;7.83;;;5.37;;
2147;SDS011;1080;48.724;9.104;2023-01-29T01:51:14;6.00;;;4.50;;
2147;SDS011;1080;48.724;9.104;2023-01-29T01:53:43;10.60;;;5.80;;
2147;SDS011;1080;48.724;9.104;2023-01-29T01:56:17;9.40;;;6.10;;
2147;SDS011;1080;48.724;9.104;2023-01-29T01:58:50;8.10;;;5.37;;
2147;SDS011;1080;48.724;9.104;2023-01-29T02:01:20;6.53;;;4.77;;
2147;SDS011;1080;48.724;9.104;2023-01-29T02:03:54;8.47;;;5.20;;
2147;SDS011;1080;48.724;9.104;2023-01-29T02:06:41;9.13;;;4.67;;
2147;SDS011;1080;48.724;9.104;2023-01-29T02:09:27;7.13;;;5.00;;
2147;SDS011;1080;48.724;9.104;2023-01-29T02:12:01;7.93;;;4.97;;
2147;SDS011;1080;48.724;9.104;2023-01-29T02:14:30;7.33;;;5.60;;
2147;SDS011;1080;48.724;9.104;2023-01-29T02:16:58;7.90;;;4.83;;
2147;SDS011;1080;48.724;9.104;2023-01-29T02:19:28;7.73;;;4.37;;
2147;SDS011;1080;48.724;9.104;2023-01-29T02:22:11;5.90;;;4.50;;
2147;SDS011;1080;48.724;9.104;2023-01-29T02:24:58;5.13;;;3.77;;
2147;SDS011;1080;48.724;9.104;2023-01-29T02:27:36;8.53;;;4.50;;
2147;SDS011;1080;48.724;9.104;2023-01-29T02:30:16;9.50;;;5.40;;
2147;SDS011;1080;48.724;9.104;2023-01-29T02:32:49;7.50;;;4.83;;
2147;SDS011;1080;48.724;9.104;2023-01-29T02:35:27;6.73;;;4.73;;
2147;SDS011;1080;48.724;9.104;2023-01-29T02:38:00;6.70;;;4.73;;
2147;SDS011;1080;48.724;9.104;2023-01-29T02:40:35;8.00;;;4.40;;
2147;SDS011;1080;48.724;9.104;2023-01-29T02:43:11;13.53;;;4.63;;
2147;SDS011;1080;48.724;9.104;2023-01-29T02:45:52;7.00;;;3.60;;
2147;SDS011;1080;48.724;9.104;2023-01-29T02:48:26;7.77;;;4.10;;
2147;SDS011;1080;48.724;9.104;2023-01-29T02:51:04;6.70;;;4.47;;
2147;SDS011;1080;48.724;9.104;2023-01-29T02:53:35;5.97;;;4.20;;
2147;SDS011;1080;48.724;9.104;2023-01-29T02:56:09;5.77;;;4.73;;
2147;SDS011;1080;48.724;9.104;2023-01-29T02:58:41;4.00;;;3.27;;
2147;SDS011;1080;48.724;9.104;2023-01-29T03:01:14;7.97;;;4.10;;
2147;SDS011;1080;48.724;9.104;2023-01-29T03:03:44;3.50;;;2.87;;
2147;SDS011;1080;48.724;9.104;2023-01-29T03:06:16;9.47;;;4.10;;
2147;SDS011;1080;48.724;9.104;2023-01-29T03:08:46;4.53;;;4.00;;
2147;SDS011;1080;48.724;9.104;2023-01-29T03:11:18;5.47;;;4.10;;
2147;SDS011;1080;48.724;9.104;2023-01-29T03:13:46;6.27;;;4.80;;
2147;SDS011;1080;48.724;9.104;2023-01-29T03:16:19;4.63;;;3.73;;
2147;SDS011;1080;48.724;9.104;2023-01-29T03:18:51;5.40;;;4.23;;
2147;SDS011;1080;48.724;9.104;2023-01-29T03:21:22;5.70;;;3.80;;
2147;SDS011;1080;48.724;9.104;2023-01-29T03:24:11;6.43;;;4.40;;
2147;SDS011;1080;48.724;9.104;2023-01-29T03:26:57;4.90;;;3.60;;
2147;SDS011;1080;48.724;9.104;2023-01-29T03:29:45;6.73;;;4.50;;
2147;SDS011;1080;48.724;9.104;2023-01-29T03:32:33;7.00;;;4.90;;
2147;SDS011;1080;48.724;9.104;2023-01-29T03:35:02;6.47;;;4.93;;
2147;SDS011;1080;48.724;9.104;2023-01-29T03:37:34;6.37;;;4.50;;
2147;SDS011;1080;48.724;9.104;2023-01-29T03:40:06;5.57;;;4.53;;
2147;SDS011;1080;48.724;9.104;2023-01-29T03:42:37;7.73;;;4.20;;
2147;SDS011;1080;48.724;9.104;2023-01-29T03:45:20;6.17;;;4.30;;
2147;SDS011;1080;48.724;9.104;2023-01-29T03:47:56;12.00;;;4.97;;
2147;SDS011;1080;48.724;9.104;2023-01-29T03:50:31;8.67;;;5.27;;
2147;SDS011;1080;48.724;9.104;2023-01-29T03:53:05;6.23;;;4.70;;
2147;SDS011;1080;48.724;9.104;2023-01-29T03:55:39;5.77;;;4.17;;
2147;SDS011;1080;48.724;9.104;2023-01-29T03:58:13;5.87;;;3.67;;
2147;SDS011;1080;48.724;9.104;2023-01-29T04:00:48;6.17;;;4.30;;
2147;SDS011;1080;48.724;9.104;2023-01-29T04:03:21;6.40;;;4.20;;
2147;SDS011;1080;48.724;9.104;2023-01-29T04:05:55;9.93;;;4.43;;
2147;SDS011;1080;48.724;9.104;2023-01-29T04:08:31;4.77;;;3.70;;
2147;SDS011;1080;48.724;9.104;2023-01-29T04:11:04;8.37;;;4.07;;
2147;SDS011;1080;48.724;9.104;2023-01-29T04:13:35;4.50;;;3.40;;
2147;SDS011;1080;48.724;9.104;2023-01-29T04:16:03;6.83;;;4.80;;
2147;SDS011;1080;48.724;9.104;2023-01-29T04:18:34;6.63;;;4.90;;
2147;SDS011;1080;48.724;9.104;2023-01-29T04:21:01;8.73;;;4.80;;
2147;SDS011;1080;48.724;9.104;2023-01-29T04:23:31;9.23;;;5.70;;
2147;SDS011;1080;48.724;9.104;2023-01-29T04:26:02;6.80;;;5.00;;
2147;SDS011;1080;48.724;9.104;2023-01-29T04:28:50;5.70;;;3.83;;
2147;SDS011;1080;48.724;9.104;2023-01-29T04:31:25;4.60;;;3.70;;
2147;SDS011;1080;48.724;9.104;2023-01-29T04:34:00;7.70;;;5.00;;
2147;SDS011;1080;48.724;9.104;2023-01-29T04:36:35;6.67;;;4.50;;
2147;SDS011;1080;48.724;9.104;2023-01-29T04:39:08;11.03;;;5.00;;
2147;SDS011;1080;48.724;9.104;2023-01-29T04:41:41;7.57;;;4.17;;
2147;SDS011;1080;48.724;9.104;2023-01-29T04:44:17;6.47;;;4.70;;
2147;SDS011;1080;48.724;9.104;2023-01-29T04:46:46;7.27;;;5.50;;
2147;SDS011;1080;48.724;9.104;2023-01-29T04:49:21;6.13;;;4.50;;
2147;SDS011;1080;48.724;9.104;2023-01-29T04:51:59;6.13;;;3.33;;
2147;SDS011;1080;48.724;9.104;2023-01-29T04:54:34;6.17;;;4.43;;
2147;SDS011;1080;48.724;9.104;2023-01-29T04:57:09;7.50;;;4.20;;
2147;SDS011;1080;48.724;9.104;2023-01-29T04:59:47;7.20;;;4.43;;
2147;SDS011;1080;48.724;9.104;2023-01-29T05:02:20;6.50;;;4.20;;
2147;SDS011;1080;48.724;9.104;2023-01-29T05:04:50;8.70;;;4.93;;
2147;SDS011;1080;48.724;9.104;2023-01-29T05:07:19;5.70;;;4.43;;
2147;SDS011;1080;48.724;9.104;2023-01-29T05:09:47;8.57;;;4.70;;
2147;SDS011;1080;48.724;9.104;2023-01-29T05:12:15;7.90;;;5.70;;
2147;SDS011;1080;48.724;9.104;2023-01-29T05:14:43;5.07;;;3.30;;
2147;SDS011;1080;48.724;9.104;2023-01-29T05:17:13;7.10;;;4.20;;
2147;SDS011;1080;48.724;9.104;2023-01-29T05:19:41;7.57;;;4.83;;
2147;SDS011;1080;48.724;9.104;2023-01-29T05:22:10;5.23;;;4.10;;
2147;SDS011;1080;48.724;9.104;2023-01-29T05:24:40;5.33;;;3.57;;
2147;SDS011;1080;48.724;9.104;2023-01-29T05:27:08;5.80;;;4.30;;
2147;SDS011;1080;48.724;9.104;2023-01-29T05:29:58;6.00;;;4.70;;
2147;SDS011;1080;48.724;9.104;2023-01-29T05:32:25;6.40;;;4.30;;
2147;SDS011;1080;48.724;9.104;2023-01-29T05:34:52;5.07;;;3.67;;
2147;SDS011;1080;48.724;9.104;2023-01-29T05:37:20;5.80;;;4.03;;
2147;SDS011;1080;48.724;9.104;2023-01-29T05:39:47;7.00;;;4.43;;
2147;SDS011;1080;48.724;9.104;2023-01-29T05:42:14;8.10;;;4.83;;
2147;SDS011;1080;48.724;9.104;2023-01-29T05:44:41;5.73;;;3.50;;
2147;SDS011;1080;48.724;9.104;2023-01-29T05:47:08;6.20;;;3.77;;
2147;SDS011;1080;48.724;9.104;2023-01-29T05:49:35;5.60;;;4.07;;
2147;SDS011;1080;48.724;9.104;2023-01-29T05:52:03;6.00;;;3.90;;
2147;SDS011;1080;48.724;9.104;2023-01-29T05:54:31;7.10;;;4.50;;
2147;SDS011;1080;48.724;9.104;2023-01-29T05:56:58;6.20;;;4.33;;
2147;SDS011;1080;48.724;9.104;2023-01-29T05:59:25;7.50;;;4.30;;
2147;SDS011;1080;48.724;9.104;2023-01-29T06:01:55;9.10;;;5.40;;
2147;SDS011;1080;48.724;9.104;2023-01-29T06:04:22;6.07;;;4.13;;
2147;SDS011;1080;48.724;9.104;2023-01-29T06:06:49;6.80;;;4.00;;
2147;SDS011;1080;48.724;9.104;2023-01-29T06:09:16;5.97;;;4.47;;
2147;SDS011;1080;48.724;9.104;2023-01-29T06:11:44;7.00;;;4.43;;
2147;SDS011;1080;48.724;9.104;2023-01-29T06:14:11;5.80;;;4.27;;
2147;SDS011;1080;48.724;9.104;2023-01-29T06:16:38;6.27;;;4.70;;
2147;SDS011;1080;48.724;9.104;2023-01-29T06:19:06;6.20;;;4.07;;
2147;SDS011;1080;48.724;9.104;2023-01-29T06:21:33;6.60;;;4.33;;
2147;SDS011;1080;48.724;9.104;2023-01-29T06:24:00;6.60;;;4.10;;
2147;SDS011;1080;48.724;9.104;2023-01-29T06:26:27;7.60;;;4.43;;
2147;SDS011;1080;48.724;9.104;2023-01-29T06:28:55;7.77;;;5.10;;
2147;SDS011;1080;48.724;9.104;2023-01-29T06:31:22;6.10;;;4.43;;
2147;SDS011;1080;48.724;9.104;2023-01-29T06:33:49;7.23;;;5.20;;
2147;SDS011;1080;48.724;9.104;2023-01-29T06:36:16;11.50;;;5.03;;
2147;SDS011;1080;48.724;9.104;2023-01-29T06:38:43;5.73;;;4.90;;
2147;SDS011;1080;48.724;9.104;2023-01-29T06:41:11;6.47;;;5.00;;
2147;SDS011;1080;48.724;9.104;2023-01-29T06:43:42;7.00;;;5.03;;
2147;SDS011;1080;48.724;9.104;2023-01-29T06:46:10;6.57;;;5.13;;
2147;SDS011;1080;48.724;9.104;2023-01-29T06:48:37;5.80;;;4.27;;
2147;SDS011;1080;48.724;9.104;2023-01-29T06:51:05;7.57;;;5.33;;
2147;SDS011;1080;48.724;9.104;2023-01-29T06:53:36;7.80;;;4.90;;
2147;SDS011;1080;48.724;9.104;2023-01-29T06:56:04;6.30;;;4.43;;
2147;SDS011;1080;48.724;9.104;2023-01-29T06:58:31;7.20;;;5.87;;
2147;SDS011;1080;48.724;9.104;2023-01-29T07:01:01;9.87;;;5.43;;
2147;SDS011;1080;48.724;9.104;2023-01-29T07:03:30;7.43;;;5.53;;
2147;SDS011;1080;48.724;9.104;2023-01-29T07:05:57;9.97;;;5.53;;
2147;SDS011;1080;48.724;9.104;2023-01-29T07:08:24;5.90;;;4.57;;
2147;SDS011;1080;48.724;9.104;2023-01-29T07:10:52;6.57;;;5.07;;
2147;SDS011;1080;48.724;9.104;2023-01-29T07:13:19;8.70;;;5.30;;
2147;SDS011;1080;48.724;9.104;2023-01-29T07:15:46;8.10;;;4.60;;
2147;SDS011;1080;48.724;9.104;2023-01-29T07:18:13;9.30;;;5.57;;
2147;SDS011;1080;48.724;9.104;2023-01-29T07:20:42;7.30;;;4.40;;
2147;SDS011;1080;48.724;9.104;2023-01-29T07:23:10;6.20;;;4.37;;
2147;SDS011;1080;48.724;9.104;2023-01-29T07:25:38;5.73;;;4.90;;
2147;SDS011;1080;48.724;9.104;2023-01-29T07:28:05;10.53;;;5.77;;
2147;SDS011;1080;48.724;9.104;2023-01-29T07:30:33;8.87;;;5.40;;
2147;SDS011;1080;48.724;9.104;2023-01-29T07:33:00;6.87;;;4.70;;
2147;SDS011;1080;48.724;9.104;2023-01-29T07:35:28;6.03;;;4.43;;
2147;SDS011;1080;48.724;9.104;2023-01-29T07:37:56;8.10;;;4.70;;
2147;SDS011;1080;48.724;9.104;2023-01-29T07:40:23;7.33;;;5.37;;
2147;SDS011;1080;48.724;9.104;2023-01-29T07:42:50;7.47;;;4.10;;
2147;SDS011;1080;48.724;9.104;2023-01-29T07:45:17;7.10;;;4.80;;
2147;SDS011;1080;48.724;9.104;2023-01-29T07:47:44;8.10;;;5.07;;
2147;SDS011;1080;48.724;9.104;2023-01-29T07:50:11;7.00;;;5.70;;
2147;SDS011;1080;48.724;9.104;2023-01-29T07:52:38;8.60;;;5.73;;
2147;SDS011;1080;48.724;9.104;2023-01-29T07:55:07;6.60;;;4.90;;
2147;SDS011;1080;48.724;9.104;2023-01-29T07:57:34;8.87;;;7.00;;
2147;SDS011;1080;48.724;9.104;2023-01-29T08:00:01;9.37;;;5.63;;
2147;SDS011;1080;48.724;9.104;2023-01-29T08:02:28;8.57;;;5.17;;
2147;SDS011;1080;48.724;9.104;2023-01-29T08:04:55;7.73;;;4.53;;
2147;SDS011;1080;48.724;9.104;2023-01-29T08:07:22;8.17;;;5.00;;
2147;SDS011;1080;48.724;9.104;2023-01-29T08:09:49;8.07;;;5.73;;
2147;SDS011;1080;48.724;9.104;2023-01-29T08:12:18;6.80;;;4.90;;
2147;SDS011;1080;48.724;9.104;2023-01-29T08:14:45;7.87;;;4.77;;
2147;SDS011;1080;48.724;9.104;2023-01-29T08:17:12;5.83;;;4.10;;
2147;SDS011;1080;48.724;9.104;2023-01-29T08:19:39;4.70;;;3.70;;
2147;SDS011;1080;48.724;9.104;2023-01-29T08:22:06;4.63;;;3.17;;
2147;SDS011;1080;48.724;9.104;2023-01-29T08:24:33;5.00;;;3.30;;
2147;SDS011;1080;48.724;9.104;2023-01-29T08:27:00;6.40;;;4.77;;
2147;SDS011;1080;48.724;9.104;2023-01-29T08:29:29;8.13;;;5.53;;
2147;SDS011;1080;48.724;9.104;2023-01-29T08:31:55;6.80;;;4.63;;
2147;SDS011;1080;48.724;9.104;2023-01-29T08:34:22;6.60;;;5.80;;
2147;SDS011;1080;48.724;9.104;2023-01-29T08:36:50;7.80;;;6.10;;
2147;SDS011;1080;48.724;9.104;2023-01-29T08:39:17;10.80;;;5.30;;
2147;SDS011;1080;48.724;9.104;2023-01-29T08:41:44;8.13;;;6.20;;
2147;SDS011;1080;48.724;9.104;2023-01-29T08:44:11;8.93;;;5.63;;
2147;SDS011;1080;48.724;9.104;2023-01-29T08:46:39;4.67;;;3.93;;
2147;SDS011;1080;48.724;9.104;2023-01-29T08:49:07;7.03;;;4.27;;
2147;SDS011;1080;48.724;9.104;2023-01-29T08:51:34;7.10;;;4.53;;
2147;SDS011;1080;48.724;9.104;2023-01-29T08:54:01;4.77;;;4.17;;
2147;SDS011;1080;48.724;9.104;2023-01-29T08:56:28;1.50;;;1.40;;
2147;SDS011;1080;48.724;9.104;2023-01-29T08:58:55;7.87;;;4.23;;
2147;SDS011;1080;48.724;9.104;2023-01-29T09:01:22;6.30;;;4.90;;
2147;SDS011;1080;48.724;9.104;2023-01-29T09:03:50;5.70;;;4.20;;
2147;SDS011;1080;48.724;9.104;2023-01-29T09:06:17;9.50;;;5.23;;
2147;SDS011;1080;48.724;9.104;2023-01-29T09:08:44;6.30;;;5.03;;
2147;SDS011;1080;48.724;9.104;2023-01-29T09:11:13;6.30;;;4.97;;
2147;SDS011;1080;48.724;9.104;2023-01-29T09:13:40;8.00;;;5.47;;
2147;SDS011;1080;48.724;9.104;2023-01-29T09:16:08;13.93;;;6.60;;
2147;SDS011;1080;48.724;9.104;2023-01-29T09:18:35;7.27;;;4.90;;
2147;SDS011;1080;48.724;9.104;2023-01-29T09:21:04;4.30;;;2.90;;
2147;SDS011;1080;48.724;9.104;2023-01-29T09:23:31;7.70;;;4.97;;
2147;SDS011;1080;48.724;9.104;2023-01-29T09:25:58;8.20;;;4.20;;
2147;SDS011;1080;48.724;9.104;2023-01-29T09:28:25;8.83;;;5.63;;
2147;SDS011;1080;48.724;9.104;2023-01-29T09:30:53;21.70;;;12.07;;
2147;SDS011;1080;48.724;9.104;2023-01-29T09:33:20;6.43;;;4.10;;
2147;SDS011;1080;48.724;9.104;2023-01-29T09:35:48;6.57;;;5.13;;
2147;SDS011;1080;48.724;9.104;2023-01-29T09:38:17;8.37;;;5.10;;
2147;SDS011;1080;48.724;9.104;2023-01-29T09:40:47;6.17;;;4.10;;
2147;SDS011;1080;48.724;9.104;2023-01-29T09:43:25;5.23;;;3.07;;
2147;SDS011;1080;48.724;9.104;2023-01-29T09:45:58;7.20;;;4.87;;
2147;SDS011;1080;48.724;9.104;2023-01-29T09:48:30;6.00;;;4.77;;
2147;SDS011;1080;48.724;9.104;2023-01-29T09:51:02;16.00;;;10.43;;
2147;SDS011;1080;48.724;9.104;2023-01-29T09:53:39;24.90;;;16.90;;
2147;SDS011;1080;48.724;9.104;2023-01-29T09:56:10;28.93;;;20.07;;
2147;SDS011;1080;48.724;9.104;2023-01-29T09:58:39;26.00;;;17.43;;
2147;SDS011;1080;48.724;9.104;2023-01-29T10:01:11;27.00;;;16.23;;
2147;SDS011;1080;48.724;9.104;2023-01-29T10:03:46;10.30;;;7.97;;
2147;SDS011;1080;48.724;9.104;2023-01-29T10:06:24;17.33;;;9.20;;
2147;SDS011;1080;48.724;9.104;2023-01-29T10:09:09;10.33;;;6.70;;
2147;SDS011;1080;48.724;9.104;2023-01-29T10:12:04;5.40;;;4.10;;
2147;SDS011;1080;48.724;9.104;2023-01-29T10:14:40;8.57;;;5.70;;
2147;SDS011;1080;48.724;9.104;2023-01-29T10:17:20;22.00;;;17.97;;
2147;SDS011;1080;48.724;9.104;2023-01-29T10:20:02;11.03;;;7.70;;
2147;SDS011;1080;48.724;9.104;2023-01-29T10:25:34;10.30;;;6.70;;
2147;SDS011;1080;48.724;9.104;2023-01-29T10:28:04;6.57;;;4.83;;
2147;SDS011;1080;48.724;9.104;2023-01-29T10:30:43;1.93;;;1.70;;
2147;SDS011;1080;48.724;9.104;2023-01-29T10:33:16;8.57;;;6.33;;
2147;SDS011;1080;48.724;9.104;2023-01-29T10:35:48;28.13;;;18.57;;
2147;SDS011;1080;48.724;9.104;2023-01-29T10:38:20;44.03;;;31.30;;
2147;SDS011;1080;48.724;9.104;2023-01-29T10:40:59;26.53;;;20.03;;
2147;SDS011;1080;48.724;9.104;2023-01-29T10:43:42;10.20;;;5.90;;
2147;SDS011;1080;48.724;9.104;2023-01-29T10:46:19;7.73;;;5.80;;
2147;SDS011;1080;48.724;9.104;2023-01-29T10:48:56;5.13;;;4.23;;
2147;SDS011;1080;48.724;9.104;2023-01-29T10:51:36;5.30;;;4.40;;
2147;SDS011;1080;48.724;9.104;2023-01-29T10:54:18;8.20;;;5.80;;
2147;SDS011;1080;48.724;9.104;2023-01-29T10:57:04;6.00;;;5.10;;
2147;SDS011;1080;48.724;9.104;2023-01-29T10:59:44;7.90;;;4.70;;
2147;SDS011;1080;48.724;9.104;2023-01-29T11:02:21;8.90;;;5.70;;
2147;SDS011;1080;48.724;9.104;2023-01-29T11:04:48;23.97;;;12.80;;
2147;SDS011;1080;48.724;9.104;2023-01-29T11:07:16;3.63;;;3.33;;
2147;SDS011;1080;48.724;9.104;2023-01-29T11:09:45;7.10;;;5.50;;
2147;SDS011;1080;48.724;9.104;2023-01-29T11:12:20;8.93;;;6.43;;
2147;SDS011;1080;48.724;9.104;2023-01-29T11:14:54;8.47;;;5.80;;
2147;SDS011;1080;48.724;9.104;2023-01-29T11:17:24;9.10;;;6.53;;
2147;SDS011;1080;48.724;9.104;2023-01-29T11:19:52;13.40;;;6.60;;
2147;SDS011;1080;48.724;9.104;2023-01-29T11:22:21;7.83;;;6.30;;
2147;SDS011;1080;48.724;9.104;2023-01-29T11:27:41;8.30;;;6.47;;
2147;SDS011;1080;48.724;9.104;2023-01-29T11:30:14;5.90;;;5.10;;
2147;SDS011;1080;48.724;9.104;2023-01-29T11:32:48;7.27;;;6.10;;
2147;SDS011;1080;48.724;9.104;2023-01-29T11:35:21;7.33;;;5.63;;
2147;SDS011;1080;48.724;9.104;2023-01-29T11:37:50;8.00;;;5.50;;
2147;SDS011;1080;48.724;9.104;2023-01-29T11:45:58;11.93;;;6.37;;
2147;SDS011;1080;48.724;9.104;2023-01-29T11:48:31;8.20;;;5.63;;
2147;SDS011;1080;48.724;9.104;2023-01-29T11:51:05;6.40;;;5.40;;
2147;SDS011;1080;48.724;9.104;2023-01-29T11:53:35;7.63;;;6.00;;
2147;SDS011;1080;48.724;9.104;2023-01-29T11:56:04;8.63;;;6.10;;
2147;SDS011;1080;48.724;9.104;2023-01-29T11:58:45;18.07;;;11.70;;
2147;SDS011;1080;48.724;9.104;2023-01-29T12:01:17;5.57;;;5.00;;
2147;SDS011;1080;48.724;9.104;2023-01-29T12:03:50;6.73;;;5.47;;
2147;SDS011;1080;48.724;9.104;2023-01-29T12:06:19;7.57;;;5.57;;
2147;SDS011;1080;48.724;9.104;2023-01-29T12:08:52;8.27;;;5.53;;
2147;SDS011;1080;48.724;9.104;2023-01-29T12:11:26;7.60;;;5.47;;
2147;SDS011;1080;48.724;9.104;2023-01-29T12:13:58;4.50;;;3.07;;
2147;SDS011;1080;48.724;9.104;2023-01-29T12:16:27;4.97;;;3.70;;
2147;SDS011;1080;48.724;9.104;2023-01-29T12:19:00;7.40;;;5.07;;
2147;SDS011;1080;48.724;9.104;2023-01-29T12:21:35;7.37;;;5.03;;
2147;SDS011;1080;48.724;9.104;2023-01-29T12:24:11;10.10;;;6.50;;
2147;SDS011;1080;48.724;9.104;2023-01-29T12:26:50;8.47;;;5.80;;
2147;SDS011;1080;48.724;9.104;2023-01-29T12:29:24;11.23;;;6.83;;
2147;SDS011;1080;48.724;9.104;2023-01-29T12:32:00;1.30;;;1.20;;
2147;SDS011;1080;48.724;9.104;2023-01-29T12:34:32;7.83;;;5.33;;
2147;SDS011;1080;48.724;9.104;2023-01-29T12:37:09;8.63;;;5.70;;
2147;SDS011;1080;48.724;9.104;2023-01-29T12:39:41;9.77;;;5.60;;
2147;SDS011;1080;48.724;9.104;2023-01-29T12:42:09;9.00;;;5.83;;
2147;SDS011;1080;48.724;9.104;2023-01-29T12:44:42;8.03;;;5.63;;
2147;SDS011;1080;48.724;9.104;2023-01-29T12:47:11;5.97;;;3.87;;
2147;SDS011;1080;48.724;9.104;2023-01-29T12:49:40;9.13;;;5.60;;
2147;SDS011;1080;48.724;9.104;2023-01-29T12:52:08;6.90;;;5.10;;
2147;SDS011;1080;48.724;9.104;2023-01-29T12:54:38;10.40;;;8.10;;
2147;SDS011;1080;48.724;9.104;2023-01-29T12:57:08;8.00;;;5.63;;
2147;SDS011;1080;48.724;9.104;2023-01-29T12:59:38;32.67;;;29.17;;
2147;SDS011;1080;48.724;9.104;2023-01-29T13:02:11;9.07;;;8.37;;
2147;SDS011;1080;48.724;9.104;2023-01-29T13:04:42;10.13;;;8.80;;
2147;SDS011;1080;48.724;9.104;2023-01-29T13:07:12;9.10;;;6.60;;
2147;SDS011;1080;48.724;9.104;2023-01-29T13:09:45;13.47;;;9.43;;
2147;SDS011;1080;48.724;9.104;2023-01-29T13:12:16;11.37;;;9.47;;
2147;SDS011;1080;48.724;9.104;2023-01-29T13:14:45;9.50;;;6.73;;
2147;SDS011;1080;48.724;9.104;2023-01-29T13:17:18;4.07;;;3.43;;
2147;SDS011;1080;48.724;9.104;2023-01-29T13:19:48;3.53;;;3.10;;
2147;SDS011;1080;48.724;9.104;2023-01-29T13:22:19;7.13;;;5.37;;
2147;SDS011;1080;48.724;9.104;2023-01-29T13:24:49;6.60;;;4.60;;
2147;SDS011;1080;48.724;9.104;2023-01-29T13:27:26;7.47;;;5.27;;
2147;SDS011;1080;48.724;9.104;2023-01-29T13:29:54;5.40;;;3.80;;
2147;SDS011;1080;48.724;9.104;2023-01-29T13:32:25;9.87;;;6.03;;
2147;SDS011;1080;48.724;9.104;2023-01-29T13:34:53;5.80;;;3.93;;
2147;SDS011;1080;48.724;9.104;2023-01-29T13:37:23;4.80;;;3.40;;
2147;SDS011;1080;48.724;9.104;2023-01-29T13:39:55;5.43;;;4.20;;
2147;SDS011;1080;48.724;9.104;2023-01-29T13:42:24;11.93;;;8.40;;
2147;SDS011;1080;48.724;9.104;2023-01-29T13:45:04;4.37;;;1.73;;
2147;SDS011;1080;48.724;9.104;2023-01-29T13:47:34;5.47;;;4.00;;
2147;SDS011;1080;48.724;9.104;2023-01-29T13:50:04;2.03;;;1.73;;
2147;SDS011;1080;48.724;9.104;2023-01-29T13:52:35;8.10;;;5.83;;
2147;SDS011;1080;48.724;9.104;2023-01-29T13:55:07;5.63;;;4.03;;
2147;SDS011;1080;48.724;9.104;2023-01-29T13:57:47;8.10;;;5.00;;
2147;SDS011;1080;48.724;9.104;2023-01-29T14:15:20;10.77;;;5.70;;
2147;SDS011;1080;48.724;9.104;2023-01-29T14:17:53;8.40;;;5.90;;
2147;SDS011;1080;48.724;9.104;2023-01-29T14:20:23;8.40;;;5.83;;
2147;SDS011;1080;48.724;9.104;2023-01-29T14:22:56;11.57;;;7.47;;
2147;SDS011;1080;48.724;9.104;2023-01-29T14:25:27;12.27;;;7.13;;
2147;SDS011;1080;48.724;9.104;2023-01-29T14:27:55;8.57;;;6.23;;
2147;SDS011;1080;48.724;9.104;2023-01-29T14:30:23;11.00;;;6.30;;
2147;SDS011;1080;48.724;9.104;2023-01-29T14:32:52;9.30;;;5.00;;
2147;SDS011;1080;48.724;9.104;2023-01-29T14:35:20;14.70;;;6.57;;
2147;SDS011;1080;48.724;9.104;2023-01-29T14:37:51;29.47;;;11.70;;
2147;SDS011;1080;48.724;9.104;2023-01-29T14:40:21;9.33;;;6.20;;
2147;SDS011;1080;48.724;9.104;2023-01-29T14:42:54;11.20;;;7.70;;
2147;SDS011;1080;48.724;9.104;2023-01-29T14:45:22;8.10;;;4.23;;
2147;SDS011;1080;48.724;9.104;2023-01-29T14:47:53;9.50;;;5.53;;
2147;SDS011;1080;48.724;9.104;2023-01-29T14:53:10;23.40;;;12.50;;
2147;SDS011;1080;48.724;9.104;2023-01-29T14:55:39;12.67;;;8.23;;
2147;SDS011;1080;48.724;9.104;2023-01-29T14:58:09;12.73;;;8.50;;
2147;SDS011;1080;48.724;9.104;2023-01-29T15:00:39;8.80;;;6.23;;
2147;SDS011;1080;48.724;9.104;2023-01-29T15:03:11;10.80;;;7.47;;
2147;SDS011;1080;48.724;9.104;2023-01-29T15:05:45;8.40;;;6.10;;
2147;SDS011;1080;48.724;9.104;2023-01-29T15:08:15;5.07;;;3.13;;
2147;SDS011;1080;48.724;9.104;2023-01-29T15:10:49;19.27;;;10.17;;
2147;SDS011;1080;48.724;9.104;2023-01-29T15:13:41;4.23;;;3.50;;
2147;SDS011;1080;48.724;9.104;2023-01-29T15:16:13;10.57;;;8.50;;
2147;SDS011;1080;48.724;9.104;2023-01-29T15:18:43;17.37;;;10.10;;
2147;SDS011;1080;48.724;9.104;2023-01-29T15:21:12;21.90;;;12.40;;
2147;SDS011;1080;48.724;9.104;2023-01-29T15:23:40;13.43;;;8.80;;
2147;SDS011;1080;48.724;9.104;2023-01-29T15:26:08;41.43;;;36.47;;
2147;SDS011;1080;48.724;9.104;2023-01-29T15:28:36;9.23;;;7.37;;
2147;SDS011;1080;48.724;9.104;2023-01-29T15:31:04;14.30;;;10.10;;
2147;SDS011;1080;48.724;9.104;2023-01-29T15:33:33;12.47;;;8.20;;
2147;SDS011;1080;48.724;9.104;2023-01-29T15:36:03;11.33;;;7.23;;
2147;SDS011;1080;48.724;9.104;2023-01-29T15:38:32;11.57;;;6.70;;
2147;SDS011;1080;48.724;9.104;2023-01-29T15:40:59;11.63;;;8.30;;
2147;SDS011;1080;48.724;9.104;2023-01-29T15:43:28;8.57;;;6.77;;
2147;SDS011;1080;48.724;9.104;2023-01-29T15:45:56;4.70;;;4.27;;
2147;SDS011;1080;48.724;9.104;2023-01-29T15:48:26;8.57;;;5.77;;
2147;SDS011;1080;48.724;9.104;2023-01-29T15:50:55;12.67;;;9.30;;
2147;SDS011;1080;48.724;9.104;2023-01-29T15:53:24;16.77;;;14.43;;
2147;SDS011;1080;48.724;9.104;2023-01-29T15:55:54;12.00;;;10.07;;
2147;SDS011;1080;48.724;9.104;2023-01-29T15:58:26;19.83;;;17.93;;
2147;SDS011;1080;48.724;9.104;2023-01-29T16:00:54;75.93;;;48.90;;
2147;SDS011;1080;48.724;9.104;2023-01-29T16:03:23;81.53;;;50.03;;
2147;SDS011;1080;48.724;9.104;2023-01-29T16:05:52;81.50;;;48.30;;